sensor_id;sensor_type;location;lat;lon;timestamp;P1;durP1;ratioP1;P2;durP2;ratioP2
10715;SDS011;5409;42.620;23.316;2023-03-17T00:00:02;3.17;;;2.60;;
10715;SDS011;5409;42.620;23.316;2023-03-17T00:02:28;2.92;;;2.58;;
10715;SDS011;5409;42.620;23.316;2023-03-17T00:04:56;2.50;;;2.30;;
10715;SDS011;5409;42.620;23.316;2023-03-17T00:07:23;2.40;;;2.20;;
10715;SDS011;5409;42.620;23.316;2023-03-17T00:09:49;3.33;;;2.47;;
10715;SDS011;5409;42.620;23.316;2023-03-17T00:12:16;3.63;;;3.30;;
10715;SDS011;5409;42.620;23.316;2023-03-17T00:14:43;3.08;;;2.75;;
10715;SDS011;5409;42.620;23.316;2023-03-17T00:17:11;4.60;;;3.75;;
10715;SDS011;5409;42.620;23.316;2023-03-17T00:19:38;3.40;;;2.70;;
10715;SDS011;5409;42.620;23.316;2023-03-17T00:22:09;6.95;;;3.80;;
10715;SDS011;5409;42.620;23.316;2023-03-17T00:24:39;14.65;;;6.07;;
10715;SDS011;5409;42.620;23.316;2023-03-17T00:27:08;7.18;;;4.18;;
10715;SDS011;5409;42.620;23.316;2023-03-17T00:29:36;2.28;;;2.03;;
10715;SDS011;5409;42.620;23.316;2023-03-17T00:32:04;1.20;;;1.10;;
10715;SDS011;5409;42.620;23.316;2023-03-17T00:34:30;1.65;;;1.50;;
10715;SDS011;5409;42.620;23.316;2023-03-17T00:36:58;2.40;;;2.20;;
10715;SDS011;5409;42.620;23.316;2023-03-17T00:39:26;4.65;;;3.53;;
10715;SDS011;5409;42.620;23.316;2023-03-17T00:41:52;4.90;;;2.97;;
10715;SDS011;5409;42.620;23.316;2023-03-17T00:44:19;4.53;;;2.97;;
10715;SDS011;5409;42.620;23.316;2023-03-17T00:46:45;3.33;;;2.53;;
10715;SDS011;5409;42.620;23.316;2023-03-17T00:49:13;3.67;;;2.90;;
10715;SDS011;5409;42.620;23.316;2023-03-17T00:51:41;1.48;;;1.38;;
10715;SDS011;5409;42.620;23.316;2023-03-17T00:54:08;1.60;;;1.50;;
10715;SDS011;5409;42.620;23.316;2023-03-17T00:56:36;2.10;;;1.60;;
10715;SDS011;5409;42.620;23.316;2023-03-17T00:59:04;2.40;;;1.60;;
10715;SDS011;5409;42.620;23.316;2023-03-17T01:01:30;4.40;;;2.08;;
10715;SDS011;5409;42.620;23.316;2023-03-17T01:03:57;0.95;;;0.95;;
10715;SDS011;5409;42.620;23.316;2023-03-17T01:06:24;1.23;;;1.10;;
10715;SDS011;5409;42.620;23.316;2023-03-17T01:08:50;1.30;;;1.20;;
10715;SDS011;5409;42.620;23.316;2023-03-17T01:11:18;3.67;;;2.65;;
10715;SDS011;5409;42.620;23.316;2023-03-17T01:13:46;2.50;;;2.20;;
10715;SDS011;5409;42.620;23.316;2023-03-17T01:16:13;3.28;;;2.65;;
10715;SDS011;5409;42.620;23.316;2023-03-17T01:18:40;3.55;;;2.42;;
10715;SDS011;5409;42.620;23.316;2023-03-17T01:21:07;3.33;;;2.67;;
10715;SDS011;5409;42.620;23.316;2023-03-17T01:23:34;3.35;;;2.25;;
10715;SDS011;5409;42.620;23.316;2023-03-17T01:26:00;3.65;;;2.75;;
10715;SDS011;5409;42.620;23.316;2023-03-17T01:28:27;2.20;;;2.00;;
10715;SDS011;5409;42.620;23.316;2023-03-17T01:30:55;2.22;;;1.88;;
10715;SDS011;5409;42.620;23.316;2023-03-17T01:33:21;2.63;;;1.75;;
10715;SDS011;5409;42.620;23.316;2023-03-17T01:35:48;3.03;;;1.63;;
10715;SDS011;5409;42.620;23.316;2023-03-17T01:38:15;1.60;;;1.50;;
10715;SDS011;5409;42.620;23.316;2023-03-17T01:40:43;3.28;;;1.92;;
10715;SDS011;5409;42.620;23.316;2023-03-17T01:43:18;1.50;;;1.40;;
10715;SDS011;5409;42.620;23.316;2023-03-17T01:46:13;2.40;;;1.67;;
10715;SDS011;5409;42.620;23.316;2023-03-17T01:48:41;1.75;;;1.65;;
10715;SDS011;5409;42.620;23.316;2023-03-17T01:51:10;1.75;;;1.50;;
10715;SDS011;5409;42.620;23.316;2023-03-17T01:53:39;1.98;;;1.73;;
10715;SDS011;5409;42.620;23.316;2023-03-17T01:56:06;1.55;;;1.45;;
10715;SDS011;5409;42.620;23.316;2023-03-17T01:58:33;1.50;;;1.40;;
10715;SDS011;5409;42.620;23.316;2023-03-17T02:01:00;1.70;;;1.60;;
10715;SDS011;5409;42.620;23.316;2023-03-17T02:03:28;2.53;;;1.63;;
10715;SDS011;5409;42.620;23.316;2023-03-17T02:05:54;2.05;;;1.85;;
10715;SDS011;5409;42.620;23.316;2023-03-17T02:08:23;1.60;;;1.50;;
10715;SDS011;5409;42.620;23.316;2023-03-17T02:10:50;2.70;;;1.30;;
10715;SDS011;5409;42.620;23.316;2023-03-17T02:13:17;1.40;;;1.30;;
10715;SDS011;5409;42.620;23.316;2023-03-17T02:15:44;1.40;;;1.30;;
10715;SDS011;5409;42.620;23.316;2023-03-17T02:18:13;1.33;;;1.23;;
10715;SDS011;5409;42.620;23.316;2023-03-17T02:23:40;1.20;;;1.15;;
10715;SDS011;5409;42.620;23.316;2023-03-17T02:26:07;1.33;;;1.23;;
10715;SDS011;5409;42.620;23.316;2023-03-17T02:28:34;1.80;;;1.58;;
10715;SDS011;5409;42.620;23.316;2023-03-17T02:31:01;1.67;;;1.40;;
10715;SDS011;5409;42.620;23.316;2023-03-17T02:33:28;2.55;;;1.88;;
10715;SDS011;5409;42.620;23.316;2023-03-17T02:35:55;1.70;;;1.60;;
10715;SDS011;5409;42.620;23.316;2023-03-17T02:38:22;1.27;;;1.17;;
10715;SDS011;5409;42.620;23.316;2023-03-17T02:40:50;1.42;;;1.33;;
10715;SDS011;5409;42.620;23.316;2023-03-17T02:43:17;1.50;;;1.30;;
10715;SDS011;5409;42.620;23.316;2023-03-17T02:45:43;1.60;;;1.50;;
10715;SDS011;5409;42.620;23.316;2023-03-17T02:48:10;1.30;;;1.20;;
10715;SDS011;5409;42.620;23.316;2023-03-17T02:50:37;1.65;;;1.30;;
10715;SDS011;5409;42.620;23.316;2023-03-17T02:53:03;1.40;;;1.30;;
10715;SDS011;5409;42.620;23.316;2023-03-17T02:55:31;1.20;;;1.10;;
10715;SDS011;5409;42.620;23.316;2023-03-17T02:57:59;1.08;;;1.08;;
10715;SDS011;5409;42.620;23.316;2023-03-17T03:00:27;2.25;;;1.60;;
10715;SDS011;5409;42.620;23.316;2023-03-17T03:02:54;1.40;;;1.30;;
10715;SDS011;5409;42.620;23.316;2023-03-17T03:05:20;1.30;;;1.20;;
10715;SDS011;5409;42.620;23.316;2023-03-17T03:07:47;1.35;;;1.25;;
10715;SDS011;5409;42.620;23.316;2023-03-17T03:10:15;1.98;;;1.70;;
10715;SDS011;5409;42.620;23.316;2023-03-17T03:12:42;1.45;;;1.35;;
10715;SDS011;5409;42.620;23.316;2023-03-17T03:15:11;1.50;;;1.40;;
10715;SDS011;5409;42.620;23.316;2023-03-17T03:17:37;1.60;;;1.50;;
10715;SDS011;5409;42.620;23.316;2023-03-17T03:20:04;1.58;;;1.48;;
10715;SDS011;5409;42.620;23.316;2023-03-17T03:22:31;3.15;;;1.80;;
10715;SDS011;5409;42.620;23.316;2023-03-17T03:24:58;2.10;;;1.60;;
10715;SDS011;5409;42.620;23.316;2023-03-17T03:27:25;1.63;;;1.52;;
10715;SDS011;5409;42.620;23.316;2023-03-17T03:29:51;3.20;;;1.90;;
10715;SDS011;5409;42.620;23.316;2023-03-17T03:32:19;2.53;;;1.77;;
10715;SDS011;5409;42.620;23.316;2023-03-17T03:34:46;2.63;;;2.13;;
10715;SDS011;5409;42.620;23.316;2023-03-17T03:37:12;2.17;;;1.60;;
10715;SDS011;5409;42.620;23.316;2023-03-17T03:39:38;1.77;;;1.55;;
10715;SDS011;5409;42.620;23.316;2023-03-17T03:42:05;1.60;;;1.50;;
10715;SDS011;5409;42.620;23.316;2023-03-17T03:44:32;3.58;;;2.50;;
10715;SDS011;5409;42.620;23.316;2023-03-17T03:46:58;3.05;;;2.55;;
10715;SDS011;5409;42.620;23.316;2023-03-17T03:49:27;2.60;;;1.95;;
10715;SDS011;5409;42.620;23.316;2023-03-17T03:51:54;2.45;;;1.92;;
10715;SDS011;5409;42.620;23.316;2023-03-17T03:54:20;3.20;;;2.45;;
10715;SDS011;5409;42.620;23.316;2023-03-17T03:56:47;3.70;;;2.58;;
10715;SDS011;5409;42.620;23.316;2023-03-17T03:59:13;2.70;;;2.45;;
10715;SDS011;5409;42.620;23.316;2023-03-17T04:01:40;2.20;;;2.00;;
10715;SDS011;5409;42.620;23.316;2023-03-17T04:04:06;3.70;;;2.45;;
10715;SDS011;5409;42.620;23.316;2023-03-17T04:06:34;3.75;;;2.50;;
10715;SDS011;5409;42.620;23.316;2023-03-17T04:09:01;3.67;;;2.42;;
10715;SDS011;5409;42.620;23.316;2023-03-17T04:11:27;2.45;;;2.13;;
10715;SDS011;5409;42.620;23.316;2023-03-17T04:13:54;2.50;;;2.30;;
10715;SDS011;5409;42.620;23.316;2023-03-17T04:16:21;3.75;;;2.10;;
10715;SDS011;5409;42.620;23.316;2023-03-17T04:18:47;2.50;;;2.28;;
10715;SDS011;5409;42.620;23.316;2023-03-17T04:21:13;4.10;;;2.65;;
10715;SDS011;5409;42.620;23.316;2023-03-17T04:23:44;2.30;;;2.10;;
10715;SDS011;5409;42.620;23.316;2023-03-17T04:26:11;2.72;;;2.35;;
10715;SDS011;5409;42.620;23.316;2023-03-17T04:28:38;2.45;;;2.15;;
10715;SDS011;5409;42.620;23.316;2023-03-17T04:31:04;2.33;;;2.08;;
10715;SDS011;5409;42.620;23.316;2023-03-17T04:33:31;3.28;;;2.63;;
10715;SDS011;5409;42.620;23.316;2023-03-17T04:35:58;3.13;;;2.83;;
10715;SDS011;5409;42.620;23.316;2023-03-17T04:38:24;6.05;;;4.28;;
10715;SDS011;5409;42.620;23.316;2023-03-17T04:40:52;5.70;;;4.97;;
10715;SDS011;5409;42.620;23.316;2023-03-17T04:43:19;6.20;;;5.28;;
10715;SDS011;5409;42.620;23.316;2023-03-17T04:45:45;9.05;;;5.82;;
10715;SDS011;5409;42.620;23.316;2023-03-17T04:48:12;6.07;;;4.90;;
10715;SDS011;5409;42.620;23.316;2023-03-17T04:50:38;5.22;;;3.47;;
10715;SDS011;5409;42.620;23.316;2023-03-17T04:53:06;6.53;;;4.68;;
10715;SDS011;5409;42.620;23.316;2023-03-17T04:55:33;6.40;;;4.93;;
10715;SDS011;5409;42.620;23.316;2023-03-17T04:58:01;5.20;;;4.10;;
10715;SDS011;5409;42.620;23.316;2023-03-17T05:00:28;5.32;;;4.10;;
10715;SDS011;5409;42.620;23.316;2023-03-17T05:02:54;5.60;;;4.15;;
10715;SDS011;5409;42.620;23.316;2023-03-17T05:05:21;4.53;;;3.60;;
10715;SDS011;5409;42.620;23.316;2023-03-17T05:07:47;4.45;;;3.70;;
10715;SDS011;5409;42.620;23.316;2023-03-17T05:10:14;4.63;;;3.50;;
10715;SDS011;5409;42.620;23.316;2023-03-17T05:12:40;3.45;;;3.00;;
10715;SDS011;5409;42.620;23.316;2023-03-17T05:15:08;4.97;;;3.80;;
10715;SDS011;5409;42.620;23.316;2023-03-17T05:17:35;5.53;;;4.50;;
10715;SDS011;5409;42.620;23.316;2023-03-17T05:20:01;5.63;;;4.72;;
10715;SDS011;5409;42.620;23.316;2023-03-17T05:22:28;7.38;;;6.03;;
10715;SDS011;5409;42.620;23.316;2023-03-17T05:24:55;6.75;;;5.30;;
10715;SDS011;5409;42.620;23.316;2023-03-17T05:27:21;7.55;;;5.50;;
10715;SDS011;5409;42.620;23.316;2023-03-17T05:29:48;7.03;;;5.15;;
10715;SDS011;5409;42.620;23.316;2023-03-17T05:32:16;6.57;;;5.32;;
10715;SDS011;5409;42.620;23.316;2023-03-17T05:34:44;6.70;;;5.00;;
10715;SDS011;5409;42.620;23.316;2023-03-17T05:37:10;6.43;;;4.43;;
10715;SDS011;5409;42.620;23.316;2023-03-17T05:39:37;7.07;;;4.90;;
10715;SDS011;5409;42.620;23.316;2023-03-17T05:42:03;4.75;;;4.20;;
10715;SDS011;5409;42.620;23.316;2023-03-17T05:44:30;6.25;;;4.55;;
10715;SDS011;5409;42.620;23.316;2023-03-17T05:46:56;4.00;;;3.45;;
10715;SDS011;5409;42.620;23.316;2023-03-17T05:49:25;5.57;;;3.92;;
10715;SDS011;5409;42.620;23.316;2023-03-17T05:51:51;5.75;;;4.38;;
10715;SDS011;5409;42.620;23.316;2023-03-17T05:54:18;4.55;;;3.45;;
10715;SDS011;5409;42.620;23.316;2023-03-17T05:56:44;5.68;;;4.03;;
10715;SDS011;5409;42.620;23.316;2023-03-17T05:59:11;3.40;;;3.10;;
10715;SDS011;5409;42.620;23.316;2023-03-17T06:01:40;4.45;;;4.05;;
10715;SDS011;5409;42.620;23.316;2023-03-17T06:04:07;4.30;;;3.53;;
10715;SDS011;5409;42.620;23.316;2023-03-17T06:06:35;4.25;;;3.80;;
10715;SDS011;5409;42.620;23.316;2023-03-17T06:09:01;3.95;;;3.20;;
10715;SDS011;5409;42.620;23.316;2023-03-17T06:11:28;4.20;;;3.38;;
10715;SDS011;5409;42.620;23.316;2023-03-17T06:13:55;4.43;;;3.60;;
10715;SDS011;5409;42.620;23.316;2023-03-17T06:16:21;4.22;;;3.40;;
10715;SDS011;5409;42.620;23.316;2023-03-17T06:18:48;3.97;;;3.53;;
10715;SDS011;5409;42.620;23.316;2023-03-17T06:21:14;5.15;;;4.07;;
10715;SDS011;5409;42.620;23.316;2023-03-17T06:23:42;4.28;;;3.78;;
10715;SDS011;5409;42.620;23.316;2023-03-17T06:26:09;5.43;;;4.38;;
10715;SDS011;5409;42.620;23.316;2023-03-17T06:28:35;4.88;;;4.38;;
10715;SDS011;5409;42.620;23.316;2023-03-17T06:31:02;6.22;;;4.78;;
10715;SDS011;5409;42.620;23.316;2023-03-17T06:33:28;5.60;;;4.57;;
10715;SDS011;5409;42.620;23.316;2023-03-17T06:35:55;6.93;;;5.05;;
10715;SDS011;5409;42.620;23.316;2023-03-17T06:38:22;5.82;;;5.18;;
10715;SDS011;5409;42.620;23.316;2023-03-17T06:40:50;5.20;;;3.97;;
10715;SDS011;5409;42.620;23.316;2023-03-17T06:43:17;2.63;;;2.40;;
10715;SDS011;5409;42.620;23.316;2023-03-17T06:45:44;2.85;;;2.58;;
10715;SDS011;5409;42.620;23.316;2023-03-17T06:48:10;3.03;;;2.28;;
10715;SDS011;5409;42.620;23.316;2023-03-17T06:50:37;3.50;;;2.50;;
10715;SDS011;5409;42.620;23.316;2023-03-17T06:53:03;2.95;;;2.28;;
10715;SDS011;5409;42.620;23.316;2023-03-17T06:55:31;3.00;;;2.70;;
10715;SDS011;5409;42.620;23.316;2023-03-17T06:57:59;6.53;;;2.60;;
10715;SDS011;5409;42.620;23.316;2023-03-17T07:00:27;2.45;;;2.25;;
10715;SDS011;5409;42.620;23.316;2023-03-17T07:02:54;3.25;;;2.30;;
10715;SDS011;5409;42.620;23.316;2023-03-17T07:05:21;4.80;;;3.25;;
10715;SDS011;5409;42.620;23.316;2023-03-17T07:07:48;3.10;;;2.83;;
10715;SDS011;5409;42.620;23.316;2023-03-17T07:10:15;4.43;;;3.03;;
10715;SDS011;5409;42.620;23.316;2023-03-17T07:12:42;3.70;;;3.03;;
10715;SDS011;5409;42.620;23.316;2023-03-17T07:15:10;3.60;;;3.05;;
10715;SDS011;5409;42.620;23.316;2023-03-17T07:17:37;3.33;;;3.00;;
10715;SDS011;5409;42.620;23.316;2023-03-17T07:20:04;4.40;;;2.30;;
10715;SDS011;5409;42.620;23.316;2023-03-17T07:22:31;2.78;;;2.40;;
10715;SDS011;5409;42.620;23.316;2023-03-17T07:24:57;4.03;;;1.95;;
10715;SDS011;5409;42.620;23.316;2023-03-17T07:27:24;2.15;;;1.92;;
10715;SDS011;5409;42.620;23.316;2023-03-17T07:29:50;2.00;;;1.90;;
10715;SDS011;5409;42.620;23.316;2023-03-17T07:32:18;4.13;;;3.25;;
10715;SDS011;5409;42.620;23.316;2023-03-17T07:34:45;8.48;;;5.43;;
10715;SDS011;5409;42.620;23.316;2023-03-17T07:37:11;6.50;;;4.22;;
10715;SDS011;5409;42.620;23.316;2023-03-17T07:39:38;6.05;;;4.47;;
10715;SDS011;5409;42.620;23.316;2023-03-17T07:42:05;5.15;;;3.40;;
10715;SDS011;5409;42.620;23.316;2023-03-17T07:44:31;4.93;;;3.88;;
10715;SDS011;5409;42.620;23.316;2023-03-17T07:46:58;4.38;;;3.03;;
10715;SDS011;5409;42.620;23.316;2023-03-17T07:49:26;3.97;;;2.90;;
10715;SDS011;5409;42.620;23.316;2023-03-17T07:51:53;3.22;;;2.92;;
10715;SDS011;5409;42.620;23.316;2023-03-17T07:54:19;4.07;;;2.80;;
10715;SDS011;5409;42.620;23.316;2023-03-17T07:56:46;4.43;;;3.55;;
10715;SDS011;5409;42.620;23.316;2023-03-17T07:59:12;5.65;;;4.25;;
10715;SDS011;5409;42.620;23.316;2023-03-17T08:01:39;7.10;;;5.07;;
10715;SDS011;5409;42.620;23.316;2023-03-17T08:04:05;7.10;;;4.90;;
10715;SDS011;5409;42.620;23.316;2023-03-17T08:06:36;9.65;;;6.72;;
10715;SDS011;5409;42.620;23.316;2023-03-17T08:09:02;9.15;;;6.50;;
10715;SDS011;5409;42.620;23.316;2023-03-17T08:11:29;8.35;;;5.95;;
10715;SDS011;5409;42.620;23.316;2023-03-17T08:13:56;10.48;;;6.65;;
10715;SDS011;5409;42.620;23.316;2023-03-17T08:16:24;8.73;;;6.10;;
10715;SDS011;5409;42.620;23.316;2023-03-17T08:18:50;8.70;;;6.82;;
10715;SDS011;5409;42.620;23.316;2023-03-17T08:21:17;10.00;;;6.13;;
10715;SDS011;5409;42.620;23.316;2023-03-17T08:23:45;8.18;;;6.18;;
10715;SDS011;5409;42.620;23.316;2023-03-17T08:26:12;10.52;;;5.78;;
10715;SDS011;5409;42.620;23.316;2023-03-17T08:28:40;7.40;;;5.93;;
10715;SDS011;5409;42.620;23.316;2023-03-17T08:31:07;6.93;;;5.28;;
10715;SDS011;5409;42.620;23.316;2023-03-17T08:33:34;7.95;;;5.30;;
10715;SDS011;5409;42.620;23.316;2023-03-17T08:36:03;6.65;;;5.65;;
10715;SDS011;5409;42.620;23.316;2023-03-17T08:38:30;7.18;;;5.60;;
10715;SDS011;5409;42.620;23.316;2023-03-17T08:40:59;8.63;;;6.75;;
10715;SDS011;5409;42.620;23.316;2023-03-17T08:43:26;6.93;;;5.70;;
10715;SDS011;5409;42.620;23.316;2023-03-17T08:45:57;7.78;;;6.10;;
10715;SDS011;5409;42.620;23.316;2023-03-17T08:48:23;7.57;;;5.30;;
10715;SDS011;5409;42.620;23.316;2023-03-17T08:50:50;5.57;;;4.05;;
10715;SDS011;5409;42.620;23.316;2023-03-17T08:53:17;4.40;;;3.42;;
10715;SDS011;5409;42.620;23.316;2023-03-17T08:55:44;4.43;;;3.63;;
10715;SDS011;5409;42.620;23.316;2023-03-17T08:58:12;5.55;;;3.97;;
10715;SDS011;5409;42.620;23.316;2023-03-17T09:00:39;3.95;;;2.78;;
10715;SDS011;5409;42.620;23.316;2023-03-17T09:03:06;4.47;;;3.20;;
10715;SDS011;5409;42.620;23.316;2023-03-17T09:05:32;3.92;;;3.17;;
10715;SDS011;5409;42.620;23.316;2023-03-17T09:07:59;4.15;;;3.08;;
10715;SDS011;5409;42.620;23.316;2023-03-17T09:10:25;2.90;;;2.50;;
10715;SDS011;5409;42.620;23.316;2023-03-17T09:12:53;3.55;;;2.53;;
10715;SDS011;5409;42.620;23.316;2023-03-17T09:15:26;5.65;;;3.72;;
10715;SDS011;5409;42.620;23.316;2023-03-17T09:17:53;3.33;;;2.92;;
10715;SDS011;5409;42.620;23.316;2023-03-17T09:20:20;4.30;;;2.67;;
10715;SDS011;5409;42.620;23.316;2023-03-17T09:22:46;6.47;;;3.33;;
10715;SDS011;5409;42.620;23.316;2023-03-17T09:25:13;4.65;;;3.22;;
10715;SDS011;5409;42.620;23.316;2023-03-17T09:27:40;6.82;;;5.30;;
10715;SDS011;5409;42.620;23.316;2023-03-17T09:30:08;4.80;;;4.30;;
10715;SDS011;5409;42.620;23.316;2023-03-17T09:32:36;6.15;;;3.80;;
10715;SDS011;5409;42.620;23.316;2023-03-17T09:35:03;7.03;;;4.68;;
10715;SDS011;5409;42.620;23.316;2023-03-17T09:37:29;6.72;;;4.50;;
10715;SDS011;5409;42.620;23.316;2023-03-17T09:39:56;5.80;;;4.15;;
10715;SDS011;5409;42.620;23.316;2023-03-17T09:42:26;6.20;;;4.90;;
10715;SDS011;5409;42.620;23.316;2023-03-17T09:45:00;5.65;;;4.50;;
10715;SDS011;5409;42.620;23.316;2023-03-17T09:47:41;5.43;;;4.32;;
10715;SDS011;5409;42.620;23.316;2023-03-17T09:50:12;7.53;;;4.57;;
10715;SDS011;5409;42.620;23.316;2023-03-17T09:52:40;5.15;;;4.20;;
10715;SDS011;5409;42.620;23.316;2023-03-17T09:55:21;5.13;;;4.63;;
10715;SDS011;5409;42.620;23.316;2023-03-17T09:57:49;4.20;;;3.72;;
10715;SDS011;5409;42.620;23.316;2023-03-17T10:00:17;6.78;;;4.13;;
10715;SDS011;5409;42.620;23.316;2023-03-17T10:02:48;6.38;;;4.40;;
10715;SDS011;5409;42.620;23.316;2023-03-17T10:05:17;5.57;;;4.47;;
10715;SDS011;5409;42.620;23.316;2023-03-17T10:07:45;6.88;;;4.63;;
10715;SDS011;5409;42.620;23.316;2023-03-17T10:10:15;7.50;;;4.68;;
10715;SDS011;5409;42.620;23.316;2023-03-17T10:12:45;6.20;;;4.53;;
10715;SDS011;5409;42.620;23.316;2023-03-17T10:15:14;6.45;;;4.78;;
10715;SDS011;5409;42.620;23.316;2023-03-17T10:17:43;5.32;;;4.60;;
10715;SDS011;5409;42.620;23.316;2023-03-17T10:20:12;12.60;;;8.18;;
10715;SDS011;5409;42.620;23.316;2023-03-17T10:22:40;11.80;;;6.60;;
10715;SDS011;5409;42.620;23.316;2023-03-17T10:25:11;7.20;;;4.68;;
10715;SDS011;5409;42.620;23.316;2023-03-17T10:27:39;5.30;;;4.18;;
10715;SDS011;5409;42.620;23.316;2023-03-17T10:30:10;5.22;;;4.43;;
10715;SDS011;5409;42.620;23.316;2023-03-17T10:32:37;6.28;;;4.00;;
10715;SDS011;5409;42.620;23.316;2023-03-17T10:35:05;4.50;;;3.90;;
10715;SDS011;5409;42.620;23.316;2023-03-17T10:37:34;6.43;;;4.45;;
10715;SDS011;5409;42.620;23.316;2023-03-17T10:40:03;6.53;;;4.22;;
10715;SDS011;5409;42.620;23.316;2023-03-17T10:42:30;6.03;;;4.38;;
10715;SDS011;5409;42.620;23.316;2023-03-17T10:44:57;4.28;;;3.88;;
10715;SDS011;5409;42.620;23.316;2023-03-17T10:47:31;4.35;;;3.55;;
10715;SDS011;5409;42.620;23.316;2023-03-17T10:49:58;3.95;;;3.60;;
10715;SDS011;5409;42.620;23.316;2023-03-17T10:52:27;3.20;;;2.28;;
10715;SDS011;5409;42.620;23.316;2023-03-17T10:54:55;2.72;;;2.50;;
10715;SDS011;5409;42.620;23.316;2023-03-17T10:57:25;3.25;;;2.55;;
10715;SDS011;5409;42.620;23.316;2023-03-17T10:59:53;3.25;;;2.40;;
10715;SDS011;5409;42.620;23.316;2023-03-17T11:02:23;3.47;;;2.60;;
10715;SDS011;5409;42.620;23.316;2023-03-17T11:04:51;3.00;;;2.28;;
10715;SDS011;5409;42.620;23.316;2023-03-17T11:07:19;4.00;;;2.30;;
10715;SDS011;5409;42.620;23.316;2023-03-17T11:09:47;2.35;;;2.08;;
10715;SDS011;5409;42.620;23.316;2023-03-17T11:12:21;2.72;;;2.30;;
10715;SDS011;5409;42.620;23.316;2023-03-17T11:14:49;2.97;;;2.58;;
10715;SDS011;5409;42.620;23.316;2023-03-17T11:17:33;2.20;;;1.95;;
10715;SDS011;5409;42.620;23.316;2023-03-17T11:20:06;3.67;;;2.78;;
10715;SDS011;5409;42.620;23.316;2023-03-17T11:22:36;3.88;;;2.88;;
10715;SDS011;5409;42.620;23.316;2023-03-17T11:25:04;4.85;;;3.15;;
10715;SDS011;5409;42.620;23.316;2023-03-17T11:27:37;4.15;;;2.88;;
10715;SDS011;5409;42.620;23.316;2023-03-17T11:30:16;3.63;;;3.03;;
10715;SDS011;5409;42.620;23.316;2023-03-17T11:32:50;2.55;;;2.22;;
10715;SDS011;5409;42.620;23.316;2023-03-17T11:35:36;4.50;;;2.90;;
10715;SDS011;5409;42.620;23.316;2023-03-17T11:38:07;2.35;;;2.10;;
10715;SDS011;5409;42.620;23.316;2023-03-17T11:40:38;3.05;;;2.47;;
10715;SDS011;5409;42.620;23.316;2023-03-17T11:43:12;3.50;;;3.17;;
10715;SDS011;5409;42.620;23.316;2023-03-17T11:45:44;4.30;;;2.80;;
10715;SDS011;5409;42.620;23.316;2023-03-17T11:48:17;4.35;;;3.63;;
10715;SDS011;5409;42.620;23.316;2023-03-17T11:50:48;4.53;;;3.47;;
10715;SDS011;5409;42.620;23.316;2023-03-17T11:55:58;4.70;;;3.92;;
10715;SDS011;5409;42.620;23.316;2023-03-17T11:58:27;3.90;;;3.40;;
10715;SDS011;5409;42.620;23.316;2023-03-17T12:00:58;4.20;;;3.30;;
10715;SDS011;5409;42.620;23.316;2023-03-17T12:03:27;4.13;;;3.08;;
10715;SDS011;5409;42.620;23.316;2023-03-17T12:05:55;5.70;;;3.50;;
10715;SDS011;5409;42.620;23.316;2023-03-17T12:08:26;5.57;;;3.30;;
10715;SDS011;5409;42.620;23.316;2023-03-17T12:10:55;3.22;;;2.92;;
10715;SDS011;5409;42.620;23.316;2023-03-17T12:13:23;3.20;;;2.75;;
10715;SDS011;5409;42.620;23.316;2023-03-17T12:15:53;5.57;;;3.35;;
10715;SDS011;5409;42.620;23.316;2023-03-17T12:18:22;3.38;;;2.92;;
10715;SDS011;5409;42.620;23.316;2023-03-17T12:20:50;3.47;;;3.15;;
10715;SDS011;5409;42.620;23.316;2023-03-17T12:23:21;3.65;;;2.97;;
10715;SDS011;5409;42.620;23.316;2023-03-17T12:25:55;3.05;;;2.75;;
10715;SDS011;5409;42.620;23.316;2023-03-17T12:28:24;3.42;;;2.85;;
10715;SDS011;5409;42.620;23.316;2023-03-17T12:30:54;3.42;;;2.90;;
10715;SDS011;5409;42.620;23.316;2023-03-17T12:33:23;3.60;;;2.80;;
10715;SDS011;5409;42.620;23.316;2023-03-17T12:35:52;3.00;;;2.70;;
10715;SDS011;5409;42.620;23.316;2023-03-17T12:38:21;3.28;;;2.80;;
10715;SDS011;5409;42.620;23.316;2023-03-17T12:41:02;3.70;;;2.85;;
10715;SDS011;5409;42.620;23.316;2023-03-17T12:43:35;8.57;;;2.72;;
10715;SDS011;5409;42.620;23.316;2023-03-17T12:46:18;4.05;;;3.10;;
10715;SDS011;5409;42.620;23.316;2023-03-17T12:49:11;3.90;;;3.10;;
10715;SDS011;5409;42.620;23.316;2023-03-17T12:51:42;5.72;;;3.88;;
10715;SDS011;5409;42.620;23.316;2023-03-17T12:54:13;4.72;;;3.58;;
10715;SDS011;5409;42.620;23.316;2023-03-17T12:56:44;4.93;;;3.67;;
10715;SDS011;5409;42.620;23.316;2023-03-17T12:59:13;6.97;;;3.83;;
10715;SDS011;5409;42.620;23.316;2023-03-17T13:01:43;6.90;;;4.45;;
10715;SDS011;5409;42.620;23.316;2023-03-17T13:04:19;6.05;;;4.35;;
10715;SDS011;5409;42.620;23.316;2023-03-17T13:06:47;5.53;;;4.32;;
10715;SDS011;5409;42.620;23.316;2023-03-17T13:09:26;6.03;;;4.10;;
10715;SDS011;5409;42.620;23.316;2023-03-17T13:11:53;4.57;;;3.58;;
10715;SDS011;5409;42.620;23.316;2023-03-17T13:14:23;5.57;;;3.38;;
10715;SDS011;5409;42.620;23.316;2023-03-17T13:16:51;4.10;;;3.65;;
10715;SDS011;5409;42.620;23.316;2023-03-17T13:19:30;5.68;;;3.70;;
10715;SDS011;5409;42.620;23.316;2023-03-17T13:24:40;7.38;;;3.55;;
10715;SDS011;5409;42.620;23.316;2023-03-17T13:27:09;6.38;;;3.97;;
10715;SDS011;5409;42.620;23.316;2023-03-17T13:29:37;4.30;;;3.50;;
10715;SDS011;5409;42.620;23.316;2023-03-17T13:34:51;6.07;;;4.10;;
10715;SDS011;5409;42.620;23.316;2023-03-17T13:37:20;7.30;;;3.70;;
10715;SDS011;5409;42.620;23.316;2023-03-17T13:39:54;5.18;;;3.97;;
10715;SDS011;5409;42.620;23.316;2023-03-17T13:42:41;3.88;;;3.47;;
10715;SDS011;5409;42.620;23.316;2023-03-17T13:45:18;3.78;;;2.97;;
10715;SDS011;5409;42.620;23.316;2023-03-17T13:47:47;3.97;;;2.83;;
10715;SDS011;5409;42.620;23.316;2023-03-17T13:50:20;3.72;;;2.55;;
10715;SDS011;5409;42.620;23.316;2023-03-17T13:52:47;3.17;;;2.65;;
10715;SDS011;5409;42.620;23.316;2023-03-17T13:55:37;4.47;;;2.50;;
10715;SDS011;5409;42.620;23.316;2023-03-17T13:58:22;1.85;;;1.75;;
10715;SDS011;5409;42.620;23.316;2023-03-17T14:00:54;1.40;;;1.30;;
10715;SDS011;5409;42.620;23.316;2023-03-17T14:03:21;3.67;;;1.50;;
10715;SDS011;5409;42.620;23.316;2023-03-17T14:05:54;1.42;;;1.33;;
10715;SDS011;5409;42.620;23.316;2023-03-17T14:08:23;2.08;;;1.73;;
10715;SDS011;5409;42.620;23.316;2023-03-17T14:10:53;1.80;;;1.58;;
10715;SDS011;5409;42.620;23.316;2023-03-17T14:13:20;3.60;;;1.30;;
10715;SDS011;5409;42.620;23.316;2023-03-17T14:15:49;1.52;;;1.42;;
10715;SDS011;5409;42.620;23.316;2023-03-17T14:18:16;2.08;;;1.50;;
10715;SDS011;5409;42.620;23.316;2023-03-17T14:20:51;1.30;;;1.20;;
10715;SDS011;5409;42.620;23.316;2023-03-17T14:23:19;2.15;;;1.70;;
10715;SDS011;5409;42.620;23.316;2023-03-17T14:25:46;3.45;;;1.92;;
10715;SDS011;5409;42.620;23.316;2023-03-17T14:28:15;1.90;;;1.65;;
10715;SDS011;5409;42.620;23.316;2023-03-17T14:30:48;3.58;;;1.65;;
10715;SDS011;5409;42.620;23.316;2023-03-17T14:33:19;4.82;;;1.73;;
10715;SDS011;5409;42.620;23.316;2023-03-17T14:35:48;1.90;;;1.70;;
10715;SDS011;5409;42.620;23.316;2023-03-17T14:38:17;2.05;;;1.85;;
10715;SDS011;5409;42.620;23.316;2023-03-17T14:40:47;6.28;;;2.15;;
10715;SDS011;5409;42.620;23.316;2023-03-17T14:43:14;3.00;;;1.85;;
10715;SDS011;5409;42.620;23.316;2023-03-17T14:45:44;3.03;;;2.10;;
10715;SDS011;5409;42.620;23.316;2023-03-17T14:48:11;2.30;;;2.10;;
10715;SDS011;5409;42.620;23.316;2023-03-17T14:50:45;2.17;;;1.98;;
10715;SDS011;5409;42.620;23.316;2023-03-17T14:53:13;5.97;;;1.73;;
10715;SDS011;5409;42.620;23.316;2023-03-17T14:55:40;2.63;;;1.90;;
10715;SDS011;5409;42.620;23.316;2023-03-17T14:58:15;2.20;;;2.00;;
10715;SDS011;5409;42.620;23.316;2023-03-17T15:00:44;2.67;;;2.17;;
10715;SDS011;5409;42.620;23.316;2023-03-17T15:03:17;2.25;;;2.05;;
10715;SDS011;5409;42.620;23.316;2023-03-17T15:05:44;2.75;;;2.03;;